sensor_id;sensor_type;location;lat;lon;timestamp;P1;durP1;ratioP1;P2;durP2;ratioP2
68076;SDS011;54866;53.458;14.540;2023-03-14T00:01:24;4.10;;;3.30;;
68076;SDS011;54866;53.458;14.540;2023-03-14T00:03:54;4.00;;;2.60;;
68076;SDS011;54866;53.458;14.540;2023-03-14T00:06:24;4.20;;;3.00;;
68076;SDS011;54866;53.458;14.540;2023-03-14T00:08:53;3.20;;;2.20;;
68076;SDS011;54866;53.458;14.540;2023-03-14T00:11:23;3.30;;;2.50;;
68076;SDS011;54866;53.458;14.540;2023-03-14T00:13:53;4.20;;;2.40;;
68076;SDS011;54866;53.458;14.540;2023-03-14T00:16:23;3.60;;;2.70;;
68076;SDS011;54866;53.458;14.540;2023-03-14T00:18:52;3.60;;;2.50;;
68076;SDS011;54866;53.458;14.540;2023-03-14T00:21:22;3.80;;;2.80;;
68076;SDS011;54866;53.458;14.540;2023-03-14T00:23:51;3.30;;;2.30;;
68076;SDS011;54866;53.458;14.540;2023-03-14T00:26:21;5.30;;;3.30;;
68076;SDS011;54866;53.458;14.540;2023-03-14T00:28:52;5.50;;;3.10;;
68076;SDS011;54866;53.458;14.540;2023-03-14T00:31:22;4.00;;;3.10;;
68076;SDS011;54866;53.458;14.540;2023-03-14T00:33:52;4.50;;;2.60;;
68076;SDS011;54866;53.458;14.540;2023-03-14T00:36:22;3.80;;;2.50;;
68076;SDS011;54866;53.458;14.540;2023-03-14T00:38:52;5.80;;;2.80;;
68076;SDS011;54866;53.458;14.540;2023-03-14T00:41:22;3.80;;;2.60;;
68076;SDS011;54866;53.458;14.540;2023-03-14T00:43:52;3.50;;;3.00;;
68076;SDS011;54866;53.458;14.540;2023-03-14T00:46:22;3.80;;;2.60;;
68076;SDS011;54866;53.458;14.540;2023-03-14T00:48:51;4.80;;;2.70;;
68076;SDS011;54866;53.458;14.540;2023-03-14T00:51:21;8.10;;;4.10;;
68076;SDS011;54866;53.458;14.540;2023-03-14T00:53:50;8.50;;;2.80;;
68076;SDS011;54866;53.458;14.540;2023-03-14T00:56:20;5.00;;;2.80;;
68076;SDS011;54866;53.458;14.540;2023-03-14T00:58:49;4.90;;;2.70;;
68076;SDS011;54866;53.458;14.540;2023-03-14T01:01:23;4.20;;;2.70;;
68076;SDS011;54866;53.458;14.540;2023-03-14T01:03:53;3.60;;;2.70;;
68076;SDS011;54866;53.458;14.540;2023-03-14T01:06:24;4.00;;;2.60;;
68076;SDS011;54866;53.458;14.540;2023-03-14T01:08:55;4.60;;;3.10;;
68076;SDS011;54866;53.458;14.540;2023-03-14T01:11:26;4.80;;;2.70;;
68076;SDS011;54866;53.458;14.540;2023-03-14T01:13:57;3.70;;;2.70;;
68076;SDS011;54866;53.458;14.540;2023-03-14T01:16:28;4.20;;;3.00;;
68076;SDS011;54866;53.458;14.540;2023-03-14T01:18:59;3.80;;;2.50;;
68076;SDS011;54866;53.458;14.540;2023-03-14T01:21:29;3.50;;;2.80;;
68076;SDS011;54866;53.458;14.540;2023-03-14T01:24:01;4.20;;;2.60;;
68076;SDS011;54866;53.458;14.540;2023-03-14T01:26:32;4.10;;;2.70;;
68076;SDS011;54866;53.458;14.540;2023-03-14T01:29:03;4.90;;;2.30;;
68076;SDS011;54866;53.458;14.540;2023-03-14T01:31:32;4.20;;;2.50;;
68076;SDS011;54866;53.458;14.540;2023-03-14T01:34:02;3.30;;;2.50;;
68076;SDS011;54866;53.458;14.540;2023-03-14T01:36:32;3.30;;;2.20;;
68076;SDS011;54866;53.458;14.540;2023-03-14T01:39:02;3.60;;;2.00;;
68076;SDS011;54866;53.458;14.540;2023-03-14T01:41:33;3.00;;;1.90;;
68076;SDS011;54866;53.458;14.540;2023-03-14T01:44:03;3.20;;;1.90;;
68076;SDS011;54866;53.458;14.540;2023-03-14T01:46:35;3.40;;;1.70;;
68076;SDS011;54866;53.458;14.540;2023-03-14T01:49:11;3.90;;;1.70;;
68076;SDS011;54866;53.458;14.540;2023-03-14T01:51:49;3.30;;;1.90;;
68076;SDS011;54866;53.458;14.540;2023-03-14T01:54:25;4.10;;;1.80;;
68076;SDS011;54866;53.458;14.540;2023-03-14T01:57:01;3.30;;;2.30;;
68076;SDS011;54866;53.458;14.540;2023-03-14T01:59:36;3.70;;;2.00;;
68076;SDS011;54866;53.458;14.540;2023-03-14T02:02:09;5.10;;;1.90;;
68076;SDS011;54866;53.458;14.540;2023-03-14T02:04:40;4.10;;;1.60;;
68076;SDS011;54866;53.458;14.540;2023-03-14T02:07:12;2.90;;;1.80;;
68076;SDS011;54866;53.458;14.540;2023-03-14T02:09:43;3.00;;;1.80;;
68076;SDS011;54866;53.458;14.540;2023-03-14T02:12:14;3.50;;;1.20;;
68076;SDS011;54866;53.458;14.540;2023-03-14T02:14:45;1.90;;;1.10;;
68076;SDS011;54866;53.458;14.540;2023-03-14T02:17:16;3.40;;;1.40;;
68076;SDS011;54866;53.458;14.540;2023-03-14T02:19:53;2.00;;;1.20;;
68076;SDS011;54866;53.458;14.540;2023-03-14T02:22:31;3.20;;;1.10;;
68076;SDS011;54866;53.458;14.540;2023-03-14T02:25:05;2.40;;;0.90;;
68076;SDS011;54866;53.458;14.540;2023-03-14T02:27:40;2.00;;;0.90;;
68076;SDS011;54866;53.458;14.540;2023-03-14T02:30:12;2.50;;;1.30;;
68076;SDS011;54866;53.458;14.540;2023-03-14T02:32:46;3.10;;;1.30;;
68076;SDS011;54866;53.458;14.540;2023-03-14T02:35:20;2.70;;;0.70;;
68076;SDS011;54866;53.458;14.540;2023-03-14T02:37:53;2.00;;;1.10;;
68076;SDS011;54866;53.458;14.540;2023-03-14T02:40:27;2.30;;;0.80;;
68076;SDS011;54866;53.458;14.540;2023-03-14T02:42:56;3.70;;;1.10;;
68076;SDS011;54866;53.458;14.540;2023-03-14T02:45:34;2.00;;;1.00;;
68076;SDS011;54866;53.458;14.540;2023-03-14T02:48:07;1.80;;;1.00;;
68076;SDS011;54866;53.458;14.540;2023-03-14T02:50:41;1.80;;;1.00;;
68076;SDS011;54866;53.458;14.540;2023-03-14T02:53:15;2.00;;;1.00;;
68076;SDS011;54866;53.458;14.540;2023-03-14T02:55:48;2.30;;;0.90;;
68076;SDS011;54866;53.458;14.540;2023-03-14T02:58:18;1.60;;;0.80;;
68076;SDS011;54866;53.458;14.540;2023-03-14T03:00:48;2.00;;;1.00;;
68076;SDS011;54866;53.458;14.540;2023-03-14T03:03:18;2.10;;;0.90;;
68076;SDS011;54866;53.458;14.540;2023-03-14T03:05:49;2.00;;;1.10;;
68076;SDS011;54866;53.458;14.540;2023-03-14T03:08:19;3.30;;;0.90;;
68076;SDS011;54866;53.458;14.540;2023-03-14T03:10:50;2.40;;;1.30;;
68076;SDS011;54866;53.458;14.540;2023-03-14T03:13:20;2.70;;;0.90;;
68076;SDS011;54866;53.458;14.540;2023-03-14T03:15:50;2.60;;;1.00;;
68076;SDS011;54866;53.458;14.540;2023-03-14T03:18:19;2.00;;;0.70;;
68076;SDS011;54866;53.458;14.540;2023-03-14T03:20:49;2.40;;;0.90;;
68076;SDS011;54866;53.458;14.540;2023-03-14T03:23:19;1.90;;;0.90;;
68076;SDS011;54866;53.458;14.540;2023-03-14T03:25:49;3.20;;;1.20;;
68076;SDS011;54866;53.458;14.540;2023-03-14T03:28:19;1.90;;;0.80;;
68076;SDS011;54866;53.458;14.540;2023-03-14T03:30:49;2.80;;;0.80;;
68076;SDS011;54866;53.458;14.540;2023-03-14T03:33:18;2.30;;;1.10;;
68076;SDS011;54866;53.458;14.540;2023-03-14T03:35:49;2.90;;;1.30;;
68076;SDS011;54866;53.458;14.540;2023-03-14T03:38:19;2.70;;;1.00;;
68076;SDS011;54866;53.458;14.540;2023-03-14T03:40:49;2.50;;;1.00;;
68076;SDS011;54866;53.458;14.540;2023-03-14T03:43:19;3.20;;;1.10;;
68076;SDS011;54866;53.458;14.540;2023-03-14T03:45:48;1.30;;;0.80;;
68076;SDS011;54866;53.458;14.540;2023-03-14T03:48:18;2.30;;;1.20;;
68076;SDS011;54866;53.458;14.540;2023-03-14T03:50:47;1.80;;;0.90;;
68076;SDS011;54866;53.458;14.540;2023-03-14T03:53:17;2.50;;;1.00;;
68076;SDS011;54866;53.458;14.540;2023-03-14T03:55:47;1.60;;;1.00;;
68076;SDS011;54866;53.458;14.540;2023-03-14T03:58:16;2.20;;;1.10;;
68076;SDS011;54866;53.458;14.540;2023-03-14T04:00:46;2.30;;;1.30;;
68076;SDS011;54866;53.458;14.540;2023-03-14T04:03:16;2.40;;;1.10;;
68076;SDS011;54866;53.458;14.540;2023-03-14T04:05:45;2.80;;;1.30;;
68076;SDS011;54866;53.458;14.540;2023-03-14T04:08:25;3.40;;;1.30;;
68076;SDS011;54866;53.458;14.540;2023-03-14T04:10:55;1.90;;;0.80;;
68076;SDS011;54866;53.458;14.540;2023-03-14T04:13:26;2.70;;;0.80;;
68076;SDS011;54866;53.458;14.540;2023-03-14T04:15:56;2.60;;;1.10;;
68076;SDS011;54866;53.458;14.540;2023-03-14T04:18:26;1.70;;;0.80;;
68076;SDS011;54866;53.458;14.540;2023-03-14T04:20:57;2.50;;;1.00;;
68076;SDS011;54866;53.458;14.540;2023-03-14T04:23:27;1.80;;;0.90;;
68076;SDS011;54866;53.458;14.540;2023-03-14T04:25:57;1.70;;;0.80;;
68076;SDS011;54866;53.458;14.540;2023-03-14T04:28:26;3.80;;;1.00;;
68076;SDS011;54866;53.458;14.540;2023-03-14T04:30:56;3.60;;;1.70;;
68076;SDS011;54866;53.458;14.540;2023-03-14T04:33:25;3.30;;;1.70;;
68076;SDS011;54866;53.458;14.540;2023-03-14T04:35:55;3.10;;;0.70;;
68076;SDS011;54866;53.458;14.540;2023-03-14T04:38:25;2.30;;;1.10;;
68076;SDS011;54866;53.458;14.540;2023-03-14T04:40:54;2.20;;;1.00;;
68076;SDS011;54866;53.458;14.540;2023-03-14T04:43:24;2.80;;;1.30;;
68076;SDS011;54866;53.458;14.540;2023-03-14T04:45:54;3.10;;;1.10;;
68076;SDS011;54866;53.458;14.540;2023-03-14T04:48:25;2.20;;;0.90;;
68076;SDS011;54866;53.458;14.540;2023-03-14T04:50:55;2.90;;;1.10;;
68076;SDS011;54866;53.458;14.540;2023-03-14T04:53:25;2.60;;;1.00;;
68076;SDS011;54866;53.458;14.540;2023-03-14T04:55:54;3.00;;;1.20;;
68076;SDS011;54866;53.458;14.540;2023-03-14T04:58:24;2.60;;;1.00;;
68076;SDS011;54866;53.458;14.540;2023-03-14T05:00:54;1.90;;;1.10;;
68076;SDS011;54866;53.458;14.540;2023-03-14T05:03:28;2.30;;;1.30;;
68076;SDS011;54866;53.458;14.540;2023-03-14T05:05:58;2.60;;;1.30;;
68076;SDS011;54866;53.458;14.540;2023-03-14T05:08:28;2.80;;;1.60;;
68076;SDS011;54866;53.458;14.540;2023-03-14T05:10:58;3.40;;;1.20;;
68076;SDS011;54866;53.458;14.540;2023-03-14T05:13:27;2.10;;;1.00;;
68076;SDS011;54866;53.458;14.540;2023-03-14T05:16:04;4.00;;;1.20;;
68076;SDS011;54866;53.458;14.540;2023-03-14T05:18:35;2.70;;;1.30;;
68076;SDS011;54866;53.458;14.540;2023-03-14T05:21:05;2.60;;;1.40;;
68076;SDS011;54866;53.458;14.540;2023-03-14T05:23:35;2.20;;;1.30;;
68076;SDS011;54866;53.458;14.540;2023-03-14T05:26:05;2.30;;;1.20;;
68076;SDS011;54866;53.458;14.540;2023-03-14T05:28:35;2.80;;;1.10;;
68076;SDS011;54866;53.458;14.540;2023-03-14T05:31:07;2.30;;;1.20;;
68076;SDS011;54866;53.458;14.540;2023-03-14T05:33:37;4.20;;;0.90;;
68076;SDS011;54866;53.458;14.540;2023-03-14T05:36:08;2.60;;;1.10;;
68076;SDS011;54866;53.458;14.540;2023-03-14T05:38:38;2.70;;;1.20;;
68076;SDS011;54866;53.458;14.540;2023-03-14T05:41:07;2.40;;;1.00;;
68076;SDS011;54866;53.458;14.540;2023-03-14T05:43:37;2.30;;;0.70;;
68076;SDS011;54866;53.458;14.540;2023-03-14T05:46:07;2.90;;;1.30;;
68076;SDS011;54866;53.458;14.540;2023-03-14T05:48:36;3.60;;;1.40;;
68076;SDS011;54866;53.458;14.540;2023-03-14T05:51:07;1.90;;;1.00;;
68076;SDS011;54866;53.458;14.540;2023-03-14T05:53:37;2.30;;;1.10;;
68076;SDS011;54866;53.458;14.540;2023-03-14T05:56:07;2.00;;;1.10;;
68076;SDS011;54866;53.458;14.540;2023-03-14T05:58:37;2.80;;;1.30;;
68076;SDS011;54866;53.458;14.540;2023-03-14T06:01:07;2.90;;;1.00;;
68076;SDS011;54866;53.458;14.540;2023-03-14T06:03:37;2.30;;;0.90;;
68076;SDS011;54866;53.458;14.540;2023-03-14T06:06:07;2.70;;;1.10;;
68076;SDS011;54866;53.458;14.540;2023-03-14T06:08:37;2.50;;;1.10;;
68076;SDS011;54866;53.458;14.540;2023-03-14T06:11:06;2.30;;;0.80;;
68076;SDS011;54866;53.458;14.540;2023-03-14T06:13:36;2.00;;;1.00;;
68076;SDS011;54866;53.458;14.540;2023-03-14T06:16:07;3.30;;;1.30;;
68076;SDS011;54866;53.458;14.540;2023-03-14T06:18:37;2.60;;;1.10;;
68076;SDS011;54866;53.458;14.540;2023-03-14T06:21:07;2.00;;;1.00;;
68076;SDS011;54866;53.458;14.540;2023-03-14T06:23:37;2.80;;;0.90;;
68076;SDS011;54866;53.458;14.540;2023-03-14T06:26:06;2.40;;;0.80;;
68076;SDS011;54866;53.458;14.540;2023-03-14T06:28:38;2.60;;;0.90;;
68076;SDS011;54866;53.458;14.540;2023-03-14T06:31:07;2.70;;;1.00;;
68076;SDS011;54866;53.458;14.540;2023-03-14T06:33:37;2.30;;;0.90;;
68076;SDS011;54866;53.458;14.540;2023-03-14T06:36:07;4.30;;;1.00;;
68076;SDS011;54866;53.458;14.540;2023-03-14T06:38:37;2.00;;;1.20;;
68076;SDS011;54866;53.458;14.540;2023-03-14T06:41:07;2.70;;;1.00;;
68076;SDS011;54866;53.458;14.540;2023-03-14T06:43:37;2.10;;;1.10;;
68076;SDS011;54866;53.458;14.540;2023-03-14T06:46:07;2.20;;;1.20;;
68076;SDS011;54866;53.458;14.540;2023-03-14T06:48:36;2.40;;;1.10;;
68076;SDS011;54866;53.458;14.540;2023-03-14T06:51:08;2.00;;;1.10;;
68076;SDS011;54866;53.458;14.540;2023-03-14T06:53:37;1.80;;;1.10;;
68076;SDS011;54866;53.458;14.540;2023-03-14T06:56:08;2.60;;;1.10;;
68076;SDS011;54866;53.458;14.540;2023-03-14T06:58:38;3.90;;;1.50;;
68076;SDS011;54866;53.458;14.540;2023-03-14T07:01:10;2.20;;;1.10;;
68076;SDS011;54866;53.458;14.540;2023-03-14T07:03:48;2.50;;;1.20;;
68076;SDS011;54866;53.458;14.540;2023-03-14T07:06:18;4.20;;;1.20;;
68076;SDS011;54866;53.458;14.540;2023-03-14T07:08:48;1.90;;;1.00;;
68076;SDS011;54866;53.458;14.540;2023-03-14T07:11:18;1.90;;;1.10;;
68076;SDS011;54866;53.458;14.540;2023-03-14T07:13:47;2.30;;;1.20;;
68076;SDS011;54866;53.458;14.540;2023-03-14T07:16:17;2.80;;;1.20;;
68076;SDS011;54866;53.458;14.540;2023-03-14T07:18:46;2.90;;;1.40;;
68076;SDS011;54866;53.458;14.540;2023-03-14T07:21:16;1.90;;;1.00;;
68076;SDS011;54866;53.458;14.540;2023-03-14T07:23:46;2.70;;;1.00;;
68076;SDS011;54866;53.458;14.540;2023-03-14T07:26:16;2.90;;;1.20;;
68076;SDS011;54866;53.458;14.540;2023-03-14T07:28:45;2.10;;;1.10;;
68076;SDS011;54866;53.458;14.540;2023-03-14T07:31:15;2.00;;;1.00;;
68076;SDS011;54866;53.458;14.540;2023-03-14T07:33:44;2.40;;;1.00;;
68076;SDS011;54866;53.458;14.540;2023-03-14T07:36:14;2.50;;;0.90;;
68076;SDS011;54866;53.458;14.540;2023-03-14T07:38:44;2.40;;;1.00;;
68076;SDS011;54866;53.458;14.540;2023-03-14T07:41:14;2.50;;;1.30;;
68076;SDS011;54866;53.458;14.540;2023-03-14T07:43:43;2.30;;;1.10;;
68076;SDS011;54866;53.458;14.540;2023-03-14T07:46:13;2.30;;;1.20;;
68076;SDS011;54866;53.458;14.540;2023-03-14T07:48:43;2.90;;;1.20;;
68076;SDS011;54866;53.458;14.540;2023-03-14T07:51:13;2.80;;;1.10;;
68076;SDS011;54866;53.458;14.540;2023-03-14T07:53:43;2.50;;;1.10;;
68076;SDS011;54866;53.458;14.540;2023-03-14T07:56:12;2.90;;;1.20;;
68076;SDS011;54866;53.458;14.540;2023-03-14T07:58:42;2.00;;;1.00;;
68076;SDS011;54866;53.458;14.540;2023-03-14T08:01:11;1.60;;;0.90;;
68076;SDS011;54866;53.458;14.540;2023-03-14T08:03:41;2.00;;;1.10;;
68076;SDS011;54866;53.458;14.540;2023-03-14T08:06:10;3.60;;;1.00;;
68076;SDS011;54866;53.458;14.540;2023-03-14T08:08:40;3.30;;;0.90;;
68076;SDS011;54866;53.458;14.540;2023-03-14T08:11:10;2.60;;;0.90;;
68076;SDS011;54866;53.458;14.540;2023-03-14T08:13:39;2.30;;;1.10;;
68076;SDS011;54866;53.458;14.540;2023-03-14T08:16:15;2.50;;;1.00;;
68076;SDS011;54866;53.458;14.540;2023-03-14T08:18:46;2.50;;;1.00;;
68076;SDS011;54866;53.458;14.540;2023-03-14T08:21:15;1.60;;;0.90;;
68076;SDS011;54866;53.458;14.540;2023-03-14T08:23:45;2.10;;;1.00;;
68076;SDS011;54866;53.458;14.540;2023-03-14T08:26:14;3.10;;;1.10;;
68076;SDS011;54866;53.458;14.540;2023-03-14T08:28:44;2.40;;;1.10;;
68076;SDS011;54866;53.458;14.540;2023-03-14T08:31:13;2.10;;;1.00;;
68076;SDS011;54866;53.458;14.540;2023-03-14T08:33:43;2.50;;;1.40;;
68076;SDS011;54866;53.458;14.540;2023-03-14T08:36:13;2.80;;;1.00;;
68076;SDS011;54866;53.458;14.540;2023-03-14T08:38:42;2.80;;;1.20;;
68076;SDS011;54866;53.458;14.540;2023-03-14T08:41:12;1.80;;;0.90;;
68076;SDS011;54866;53.458;14.540;2023-03-14T08:43:41;2.30;;;1.20;;
68076;SDS011;54866;53.458;14.540;2023-03-14T08:46:11;2.50;;;1.00;;
68076;SDS011;54866;53.458;14.540;2023-03-14T08:48:41;3.00;;;1.30;;
68076;SDS011;54866;53.458;14.540;2023-03-14T08:51:11;2.20;;;1.00;;
68076;SDS011;54866;53.458;14.540;2023-03-14T08:53:41;2.60;;;1.00;;
68076;SDS011;54866;53.458;14.540;2023-03-14T08:56:11;1.70;;;0.80;;
68076;SDS011;54866;53.458;14.540;2023-03-14T08:58:40;2.40;;;1.10;;
68076;SDS011;54866;53.458;14.540;2023-03-14T09:01:10;1.60;;;1.00;;
68076;SDS011;54866;53.458;14.540;2023-03-14T09:03:40;2.00;;;0.80;;
68076;SDS011;54866;53.458;14.540;2023-03-14T09:06:10;2.50;;;1.00;;
68076;SDS011;54866;53.458;14.540;2023-03-14T09:08:39;2.60;;;0.80;;
68076;SDS011;54866;53.458;14.540;2023-03-14T09:11:10;2.70;;;1.30;;
68076;SDS011;54866;53.458;14.540;2023-03-14T09:13:39;2.40;;;0.80;;
68076;SDS011;54866;53.458;14.540;2023-03-14T09:16:09;2.60;;;1.10;;
68076;SDS011;54866;53.458;14.540;2023-03-14T09:18:39;4.10;;;1.20;;
68076;SDS011;54866;53.458;14.540;2023-03-14T09:21:08;2.00;;;0.70;;
68076;SDS011;54866;53.458;14.540;2023-03-14T09:23:38;2.20;;;0.90;;
68076;SDS011;54866;53.458;14.540;2023-03-14T09:26:08;3.70;;;1.00;;
68076;SDS011;54866;53.458;14.540;2023-03-14T09:28:37;2.30;;;0.70;;
68076;SDS011;54866;53.458;14.540;2023-03-14T09:31:08;2.80;;;1.20;;
68076;SDS011;54866;53.458;14.540;2023-03-14T09:33:39;1.90;;;0.80;;
68076;SDS011;54866;53.458;14.540;2023-03-14T09:36:09;1.70;;;0.60;;
68076;SDS011;54866;53.458;14.540;2023-03-14T09:38:39;2.10;;;0.80;;
68076;SDS011;54866;53.458;14.540;2023-03-14T09:41:16;1.60;;;0.70;;
68076;SDS011;54866;53.458;14.540;2023-03-14T09:43:49;2.20;;;0.80;;
68076;SDS011;54866;53.458;14.540;2023-03-14T09:46:26;2.30;;;0.80;;
68076;SDS011;54866;53.458;14.540;2023-03-14T09:48:57;3.40;;;0.80;;
68076;SDS011;54866;53.458;14.540;2023-03-14T09:51:26;2.30;;;0.80;;
68076;SDS011;54866;53.458;14.540;2023-03-14T09:53:58;2.30;;;0.70;;
68076;SDS011;54866;53.458;14.540;2023-03-14T09:56:28;2.40;;;1.00;;
68076;SDS011;54866;53.458;14.540;2023-03-14T09:59:00;2.40;;;0.90;;
68076;SDS011;54866;53.458;14.540;2023-03-14T10:01:36;2.10;;;0.70;;
68076;SDS011;54866;53.458;14.540;2023-03-14T10:04:07;1.70;;;0.50;;
68076;SDS011;54866;53.458;14.540;2023-03-14T10:06:42;2.70;;;0.70;;
68076;SDS011;54866;53.458;14.540;2023-03-14T10:09:15;1.70;;;0.60;;
68076;SDS011;54866;53.458;14.540;2023-03-14T10:11:52;2.60;;;0.80;;
68076;SDS011;54866;53.458;14.540;2023-03-14T10:14:33;2.50;;;1.20;;
68076;SDS011;54866;53.458;14.540;2023-03-14T10:17:08;1.90;;;0.80;;
68076;SDS011;54866;53.458;14.540;2023-03-14T10:19:40;1.60;;;0.70;;
68076;SDS011;54866;53.458;14.540;2023-03-14T10:22:20;2.30;;;1.00;;
68076;SDS011;54866;53.458;14.540;2023-03-14T10:24:52;2.50;;;0.70;;
68076;SDS011;54866;53.458;14.540;2023-03-14T10:27:28;1.10;;;0.70;;
68076;SDS011;54866;53.458;14.540;2023-03-14T10:30:00;1.70;;;0.80;;
68076;SDS011;54866;53.458;14.540;2023-03-14T10:32:33;2.80;;;1.00;;
68076;SDS011;54866;53.458;14.540;2023-03-14T10:35:06;2.00;;;0.90;;
68076;SDS011;54866;53.458;14.540;2023-03-14T10:37:50;1.50;;;0.70;;
68076;SDS011;54866;53.458;14.540;2023-03-14T10:40:23;2.50;;;0.80;;
68076;SDS011;54866;53.458;14.540;2023-03-14T10:42:56;1.50;;;0.60;;
68076;SDS011;54866;53.458;14.540;2023-03-14T10:45:35;1.50;;;0.50;;
68076;SDS011;54866;53.458;14.540;2023-03-14T10:48:15;1.90;;;0.60;;
68076;SDS011;54866;53.458;14.540;2023-03-14T10:50:49;1.60;;;0.60;;
68076;SDS011;54866;53.458;14.540;2023-03-14T10:53:24;2.70;;;0.80;;
68076;SDS011;54866;53.458;14.540;2023-03-14T10:55:55;1.70;;;0.80;;
68076;SDS011;54866;53.458;14.540;2023-03-14T10:58:26;2.60;;;0.80;;
68076;SDS011;54866;53.458;14.540;2023-03-14T11:01:00;2.10;;;0.40;;
68076;SDS011;54866;53.458;14.540;2023-03-14T11:03:36;3.80;;;0.80;;
68076;SDS011;54866;53.458;14.540;2023-03-14T11:06:12;2.70;;;0.80;;
68076;SDS011;54866;53.458;14.540;2023-03-14T11:08:48;1.40;;;0.50;;
68076;SDS011;54866;53.458;14.540;2023-03-14T11:11:25;1.90;;;0.60;;
68076;SDS011;54866;53.458;14.540;2023-03-14T11:14:00;1.90;;;0.50;;
68076;SDS011;54866;53.458;14.540;2023-03-14T11:16:45;3.10;;;0.70;;
68076;SDS011;54866;53.458;14.540;2023-03-14T11:22:32;3.00;;;0.80;;
68076;SDS011;54866;53.458;14.540;2023-03-14T11:25:10;2.70;;;0.50;;
68076;SDS011;54866;53.458;14.540;2023-03-14T11:27:47;2.20;;;0.50;;
68076;SDS011;54866;53.458;14.540;2023-03-14T11:30:23;2.90;;;0.60;;
68076;SDS011;54866;53.458;14.540;2023-03-14T11:33:03;1.90;;;0.70;;
68076;SDS011;54866;53.458;14.540;2023-03-14T11:35:41;3.20;;;0.70;;
68076;SDS011;54866;53.458;14.540;2023-03-14T11:38:23;1.40;;;0.50;;
68076;SDS011;54866;53.458;14.540;2023-03-14T11:41:00;0.80;;;0.40;;
68076;SDS011;54866;53.458;14.540;2023-03-14T11:43:32;2.00;;;0.50;;
68076;SDS011;54866;53.458;14.540;2023-03-14T11:46:07;3.70;;;1.10;;
68076;SDS011;54866;53.458;14.540;2023-03-14T11:48:43;2.50;;;0.60;;
68076;SDS011;54866;53.458;14.540;2023-03-14T11:51:22;1.90;;;0.40;;
68076;SDS011;54866;53.458;14.540;2023-03-14T11:53:57;3.40;;;0.90;;
68076;SDS011;54866;53.458;14.540;2023-03-14T11:56:33;2.10;;;0.50;;
68076;SDS011;54866;53.458;14.540;2023-03-14T11:59:12;1.20;;;0.50;;
68076;SDS011;54866;53.458;14.540;2023-03-14T12:01:56;0.90;;;0.40;;
68076;SDS011;54866;53.458;14.540;2023-03-14T12:07:23;2.60;;;0.50;;
68076;SDS011;54866;53.458;14.540;2023-03-14T12:09:57;1.70;;;0.60;;
68076;SDS011;54866;53.458;14.540;2023-03-14T12:12:27;2.50;;;0.80;;
68076;SDS011;54866;53.458;14.540;2023-03-14T12:14:59;2.00;;;0.80;;
68076;SDS011;54866;53.458;14.540;2023-03-14T12:17:35;2.80;;;0.70;;
68076;SDS011;54866;53.458;14.540;2023-03-14T12:20:12;1.90;;;0.50;;
68076;SDS011;54866;53.458;14.540;2023-03-14T12:22:47;2.40;;;0.70;;
68076;SDS011;54866;53.458;14.540;2023-03-14T12:25:20;3.30;;;0.90;;
68076;SDS011;54866;53.458;14.540;2023-03-14T12:28:04;1.80;;;0.70;;
68076;SDS011;54866;53.458;14.540;2023-03-14T12:30:45;1.40;;;0.70;;
68076;SDS011;54866;53.458;14.540;2023-03-14T12:33:21;3.10;;;0.90;;
68076;SDS011;54866;53.458;14.540;2023-03-14T12:39:12;3.60;;;0.80;;
68076;SDS011;54866;53.458;14.540;2023-03-14T12:41:51;2.10;;;0.60;;
68076;SDS011;54866;53.458;14.540;2023-03-14T12:44:40;2.10;;;0.70;;
68076;SDS011;54866;53.458;14.540;2023-03-14T12:50:19;3.70;;;1.10;;
68076;SDS011;54866;53.458;14.540;2023-03-14T12:52:56;3.70;;;0.90;;
68076;SDS011;54866;53.458;14.540;2023-03-14T12:55:47;2.10;;;0.90;;
68076;SDS011;54866;53.458;14.540;2023-03-14T12:58:25;3.10;;;1.20;;
68076;SDS011;54866;53.458;14.540;2023-03-14T13:01:01;3.50;;;0.90;;
68076;SDS011;54866;53.458;14.540;2023-03-14T13:03:42;2.10;;;0.80;;
68076;SDS011;54866;53.458;14.540;2023-03-14T13:06:15;2.00;;;0.70;;
68076;SDS011;54866;53.458;14.540;2023-03-14T13:09:48;1.90;;;0.80;;
68076;SDS011;54866;53.458;14.540;2023-03-14T13:12:31;3.20;;;1.00;;
68076;SDS011;54866;53.458;14.540;2023-03-14T13:15:14;3.40;;;1.00;;
68076;SDS011;54866;53.458;14.540;2023-03-14T13:17:49;3.90;;;1.00;;
68076;SDS011;54866;53.458;14.540;2023-03-14T13:20:24;2.00;;;0.60;;
68076;SDS011;54866;53.458;14.540;2023-03-14T13:22:58;3.10;;;0.80;;
68076;SDS011;54866;53.458;14.540;2023-03-14T13:25:30;2.70;;;1.00;;
68076;SDS011;54866;53.458;14.540;2023-03-14T13:28:02;2.70;;;0.90;;
68076;SDS011;54866;53.458;14.540;2023-03-14T13:30:40;2.20;;;1.00;;
68076;SDS011;54866;53.458;14.540;2023-03-14T13:33:15;2.50;;;0.80;;
68076;SDS011;54866;53.458;14.540;2023-03-14T13:35:46;3.20;;;1.00;;
68076;SDS011;54866;53.458;14.540;2023-03-14T13:38:18;3.20;;;1.50;;
68076;SDS011;54866;53.458;14.540;2023-03-14T13:40:49;3.00;;;1.40;;
68076;SDS011;54866;53.458;14.540;2023-03-14T13:43:27;2.00;;;1.30;;
68076;SDS011;54866;53.458;14.540;2023-03-14T13:46:03;2.80;;;1.10;;
68076;SDS011;54866;53.458;14.540;2023-03-14T13:48:35;2.70;;;0.80;;
68076;SDS011;54866;53.458;14.540;2023-03-14T13:51:10;4.80;;;1.20;;
68076;SDS011;54866;53.458;14.540;2023-03-14T13:53:45;2.70;;;1.00;;
68076;SDS011;54866;53.458;14.540;2023-03-14T13:56:17;2.50;;;1.10;;
68076;SDS011;54866;53.458;14.540;2023-03-14T13:58:47;3.50;;;1.40;;
68076;SDS011;54866;53.458;14.540;2023-03-14T14:01:18;4.10;;;1.70;;
68076;SDS011;54866;53.458;14.540;2023-03-14T14:03:50;4.60;;;1.30;;
68076;SDS011;54866;53.458;14.540;2023-03-14T14:06:29;3.90;;;2.20;;
68076;SDS011;54866;53.458;14.540;2023-03-14T14:09:02;5.00;;;2.00;;
68076;SDS011;54866;53.458;14.540;2023-03-14T14:11:40;5.20;;;1.80;;
68076;SDS011;54866;53.458;14.540;2023-03-14T14:14:15;4.60;;;1.40;;
68076;SDS011;54866;53.458;14.540;2023-03-14T14:16:47;3.90;;;1.30;;
68076;SDS011;54866;53.458;14.540;2023-03-14T14:19:17;3.50;;;1.30;;
68076;SDS011;54866;53.458;14.540;2023-03-14T14:21:50;3.40;;;1.20;;
68076;SDS011;54866;53.458;14.540;2023-03-14T14:24:21;4.30;;;1.40;;
68076;SDS011;54866;53.458;14.540;2023-03-14T14:26:58;3.50;;;1.30;;
68076;SDS011;54866;53.458;14.540;2023-03-14T14:29:30;2.60;;;1.10;;
68076;SDS011;54866;53.458;14.540;2023-03-14T14:32:02;3.40;;;1.30;;
68076;SDS011;54866;53.458;14.540;2023-03-14T14:34:42;4.00;;;1.30;;
68076;SDS011;54866;53.458;14.540;2023-03-14T14:37:19;1.50;;;0.80;;
68076;SDS011;54866;53.458;14.540;2023-03-14T14:39:51;2.30;;;1.00;;
68076;SDS011;54866;53.458;14.540;2023-03-14T14:42:24;3.30;;;1.30;;
68076;SDS011;54866;53.458;14.540;2023-03-14T14:44:56;1.90;;;1.10;;
68076;SDS011;54866;53.458;14.540;2023-03-14T14:47:27;3.00;;;1.10;;
68076;SDS011;54866;53.458;14.540;2023-03-14T14:50:03;3.70;;;0.90;;
68076;SDS011;54866;53.458;14.540;2023-03-14T14:52:46;2.40;;;1.20;;
68076;SDS011;54866;53.458;14.540;2023-03-14T14:55:18;2.60;;;1.10;;
68076;SDS011;54866;53.458;14.540;2023-03-14T14:57:52;2.00;;;1.10;;
68076;SDS011;54866;53.458;14.540;2023-03-14T15:00:23;2.70;;;1.40;;
68076;SDS011;54866;53.458;14.540;2023-03-14T15:02:55;3.10;;;1.10;;
68076;SDS011;54866;53.458;14.540;2023-03-14T15:05:28;2.10;;;1.10;;
68076;SDS011;54866;53.458;14.540;2023-03-14T15:08:02;2.80;;;0.90;;
68076;SDS011;54866;53.458;14.540;2023-03-14T15:10:35;2.20;;;1.00;;
68076;SDS011;54866;53.458;14.540;2023-03-14T15:13:05;2.70;;;1.00;;
68076;SDS011;54866;53.458;14.540;2023-03-14T15:15:34;6.30;;;1.90;;